Bradley International Airpor, Connecticut
Current Conditions -  °F | °C
As of 3:51 PM on Sunday 23 Nov 2014 (Local Time) from KBDL Reporting Station
Overcast Overcast  
Wind Chill: 57°   Ceiling: 17000
Heat Index: 57°   Visibility: 10mi
Dew Point: 28°   Wind: 10mph
Humidity: 33%   Direction: 160°SSE
Pressure: 30.1"   Gusts: NA
Location:  41.9268°N, 72.6555°W
Report Text: KBDL 232051Z 16009KT 10SM FEW070 BKN170 OVC240 14/M02 A3010 RMK AO2 SLP194 T01391022 55002
Loading
Personal Weather Stations






























Interactive Weather Map New forecast layout! Learn more

10-Day Weather Forecast

Advertisements
Track Severe Weather on mobile